メインページ
METAR-TAF:

METAR-TAF

空港 :

広州白雲国際空港

広州, 中華人民共和国

緯度: 23-10N, 経度: 113-20E, 海抜: 8m

現時点の気象観測

当レポートは20分前の12:30(UTC)に作成
北東の風 4kt
気温 24°C
湿度 100%
気圧 1009 hPa
視程10km以上
高度800ftの雲はほとんどない

METAR: ZGGG 241230Z 05002MPS 9999 FEW008 24/24 Q1009 NOSIG

時間: 20:50 (12:50 UTC)

予報

当レポートは3時間39分前の09:11(UTC)に作成
予報は24日の 12時(UTC)から 25日の 12時(UTC)まで有効
の風 6kt
視程: 8000m
高度3300ftの千切れ雲あり
24日の 18時(UTC)から 24日の 24時(UTC)まで一時的に
高度3000ftの雲はほとんどない, 積乱雲.
高度3300ftの千切れ雲あり
にわか雨
25日の 06時(UTC)から 25日の 10時(UTC)まで一時的に
視程: 4000m
高度2600ftの雲は散在している, 積乱雲.
高度3300ftの千切れ雲あり
激しい雷雨, 雨,

TAF: ZGGG 240911Z 2412/2512 18003MPS 8000 BKN033 TX30/2507Z TN23/2422Z TEMPO 2418/2424 SHRA FEW030CB BKN033 TEMPO 2506/2510 4000 TSRA SCT026CB BKN033

4,000以上の空港の気象観測と天気予報(METAR報とTAF報)

利用可能な観測所は地図上に黄色い丸と赤い丸で示す。

丸の上にカーソルを重ねると観測所名を参照できる。

次にクリックすると気象観測と天気予報を参照できる。

マップの切り替え:黒色「×」印の緑ボタンをクリックして拡大、「-」印の緑ボタンをクリックして縮小、緑色の三角印をクリックして隣りの地図に切り替え


METAR-TAF: